Erinagh Airport


Codes: EIER/
Name: Erinagh Airport
City: Nenagh
Country: Ireland
Elevation: 155 ft.

Photos at Erinagh Airport


   Photos courtesy of SpottingLog. You can add your own sightings and photos by signing up for a free trial today.



No photos found.

Weather at Erinagh Airport


Time (UTC)DescriptionTempratureWindCloud coverageVisibilityPressureHumidity
16-Jun-2024 00:00Clear Sky9°C4 mph, W10%10000m999hPa96%
16-Jun-2024 03:00Clear Sky8°C2 mph, W8%10000m1000hPa97%
16-Jun-2024 06:00Few Clouds8°C2 mph, W18%10000m1002hPa96%
16-Jun-2024 09:00Few Clouds13°C4 mph, W24%10000m1002hPa76%
16-Jun-2024 12:00Few Clouds17°C9 mph, W24%10000m1002hPa56%
16-Jun-2024 15:00Few Clouds17°C11 mph, W13%10000m1003hPa57%
16-Jun-2024 18:00Light Rain15°C11 mph, NW20%10000m1004hPa78%
16-Jun-2024 21:00Light Rain11°C4 mph, NW80%10000m1006hPa96%
17-Jun-2024 00:00Broken Clouds9°C4 mph, NW74%10000m1007hPa97%
17-Jun-2024 03:00Broken Clouds9°C4 mph, W74%10000m1008hPa95%
17-Jun-2024 06:00Overcast Clouds10°C4 mph, NW87%10000m1009hPa95%
17-Jun-2024 09:00Light Rain13°C7 mph, NW99%10000m1010hPa91%
17-Jun-2024 12:00Light Rain17°C11 mph, N90%10000m1012hPa72%
17-Jun-2024 15:00Light Rain16°C13 mph, N78%10000m1013hPa72%
17-Jun-2024 18:00Overcast Clouds14°C11 mph, N89%10000m1015hPa79%
17-Jun-2024 21:00Scattered Clouds10°C9 mph, N40%10000m1017hPa91%
18-Jun-2024 00:00Few Clouds7°C7 mph, N20%10000m1019hPa95%
18-Jun-2024 03:00Clear Sky5°C4 mph, N0%10000m1020hPa96%
18-Jun-2024 06:00Clear Sky8°C2 mph, N5%10000m1020hPa90%
18-Jun-2024 09:00Broken Clouds13°C13 mph, N69%10000m1021hPa71%
18-Jun-2024 12:00Broken Clouds16°C11 mph, N84%10000m1021hPa67%
18-Jun-2024 15:00Overcast Clouds17°C11 mph, N99%10000m1022hPa66%
18-Jun-2024 18:00Overcast Clouds16°C11 mph, N87%10000m1022hPa72%
18-Jun-2024 21:00Scattered Clouds10°C4 mph, N45%10000m1024hPa92%
19-Jun-2024 00:00Broken Clouds8°C4 mph, N70%10000m1025hPa95%
19-Jun-2024 03:00Overcast Clouds7°C4 mph, N90%10000m1025hPa97%
19-Jun-2024 06:00Overcast Clouds9°C2 mph, N94%10000m1025hPa92%
19-Jun-2024 09:00Overcast Clouds14°C2 mph, N100%10000m1024hPa74%
19-Jun-2024 12:00Overcast Clouds18°C4 mph, NE100%10000m1023hPa62%
19-Jun-2024 15:00Overcast Clouds20°C4 mph, SE100%10000m1021hPa61%
19-Jun-2024 18:00Overcast Clouds19°C2 mph, E98%10000m1020hPa66%
19-Jun-2024 21:00Few Clouds13°C4 mph, SE17%10000m1020hPa89%
20-Jun-2024 00:00Scattered Clouds11°C2 mph, SE27%10000m1017hPa91%
20-Jun-2024 03:00Broken Clouds11°C0 mph, S79%10000m1015hPa91%
20-Jun-2024 06:00Overcast Clouds12°C2 mph, E90%10000m1013hPa88%
20-Jun-2024 09:00Light Rain16°C4 mph, SE98%10000m1011hPa70%
20-Jun-2024 12:00Moderate Rain12°C2 mph, NE99%10000m1010hPa97%
20-Jun-2024 15:00Light Rain12°C2 mph, E100%10000m1008hPa98%
20-Jun-2024 18:00Light Rain12°C2 mph, S100%10000m1007hPa98%
20-Jun-2024 21:00Light Rain12°C2 mph, SW100%10000m1006hPa99%